createdAt,value
2022-10-13T00:00:35.225Z,81.05
2022-10-13T00:03:02.850Z,80.71
2022-10-13T00:05:30.763Z,81.01
2022-10-13T00:07:57.950Z,81.06
2022-10-13T00:10:25.688Z,81.21
2022-10-13T00:12:52.471Z,81.38
2022-10-13T00:15:20.026Z,81.79
2022-10-13T00:17:46.617Z,81.78
2022-10-13T00:20:13.391Z,81.93
2022-10-13T00:22:39.737Z,82.14
2022-10-13T00:25:06.730Z,82.24
2022-10-13T00:27:33.300Z,81.87
2022-10-13T00:29:59.729Z,81.87
2022-10-13T00:32:26.222Z,81.67
2022-10-13T00:34:52.614Z,81.92
2022-10-13T00:37:18.965Z,82.07
2022-10-13T00:39:45.370Z,82.24
2022-10-13T00:42:12.973Z,82.34
2022-10-13T00:45:16.905Z,82.54
2022-10-13T00:47:49.968Z,82.61
2022-10-13T00:50:20.019Z,82.37
2022-10-13T00:52:47.971Z,82.20
2022-10-13T00:55:19.467Z,82.34
2022-10-13T00:57:48.394Z,82.21
2022-10-13T01:00:15.101Z,82.34
2022-10-13T01:02:41.814Z,82.70
2022-10-13T01:05:08.661Z,82.60
2022-10-13T01:07:35.824Z,82.73
2022-10-13T01:10:03.172Z,82.47
2022-10-13T01:12:50.185Z,82.24
2022-10-13T01:15:40.090Z,82.28
2022-10-13T01:18:25.049Z,82.29
2022-10-13T01:21:09.764Z,82.05
2022-10-13T01:24:04.002Z,82.32
2022-10-13T01:26:53.283Z,82.30
2022-10-13T01:29:34.878Z,82.23
2022-10-13T01:32:13.330Z,82.23
2022-10-13T01:34:54.874Z,82.47
2022-10-13T01:38:04.718Z,82.40
2022-10-13T01:40:54.458Z,82.29
2022-10-13T01:43:25.016Z,82.23
2022-10-13T01:46:02.206Z,82.39
2022-10-13T01:48:29.441Z,82.19
2022-10-13T01:50:58.612Z,82.43
2022-10-13T01:53:26.084Z,82.76
2022-10-13T01:55:55.339Z,82.65
2022-10-13T01:58:23.785Z,82.60
2022-10-13T02:01:36.289Z,82.14
2022-10-13T02:04:25.897Z,81.92
2022-10-13T02:07:10.567Z,81.78
2022-10-13T02:10:03.746Z,82.01
2022-10-13T02:12:34.779Z,82.36
2022-10-13T02:15:01.401Z,82.02
2022-10-13T02:17:28.684Z,82.14
2022-10-13T02:19:56.010Z,81.97
2022-10-13T02:22:27.467Z,82.39
2022-10-13T02:24:53.966Z,82.40
2022-10-13T02:27:21.723Z,83.34
2022-10-13T02:29:57.554Z,83.02
2022-10-13T02:32:24.443Z,83.50
2022-10-13T02:34:51.627Z,83.84
2022-10-13T02:37:18.510Z,83.73
2022-10-13T02:39:44.865Z,83.84
2022-10-13T02:42:11.451Z,83.88
2022-10-13T02:44:37.842Z,83.91
2022-10-13T02:47:04.196Z,84.21
2022-10-13T02:49:30.481Z,83.79
2022-10-13T02:51:57.222Z,83.61
2022-10-13T02:54:23.513Z,83.78
2022-10-13T02:56:49.884Z,83.76
2022-10-13T02:59:16.507Z,83.76
2022-10-13T03:01:42.859Z,83.40
2022-10-13T03:04:09.538Z,83.33
2022-10-13T03:06:36.020Z,83.46
2022-10-13T03:09:03.153Z,83.48
2022-10-13T03:11:29.580Z,83.16
2022-10-13T03:13:56.115Z,83.59
2022-10-13T03:16:22.757Z,83.62
2022-10-13T03:18:49.133Z,83.37
2022-10-13T03:21:15.460Z,83.37
2022-10-13T03:23:42.118Z,83.58
2022-10-13T03:26:08.669Z,83.65
2022-10-13T03:28:35.252Z,83.43
2022-10-13T03:31:07.929Z,83.41
2022-10-13T03:33:34.498Z,83.47
2022-10-13T03:36:02.964Z,83.05
2022-10-13T03:38:30.994Z,83.22
2022-10-13T03:40:57.363Z,83.57
2022-10-13T03:43:24.391Z,83.46
2022-10-13T03:45:58.200Z,83.61
2022-10-13T03:48:25.313Z,83.32
2022-10-13T03:50:51.946Z,83.48
2022-10-13T03:53:18.363Z,83.25
2022-10-13T03:55:54.634Z,83.22
2022-10-13T03:58:23.242Z,82.78
2022-10-13T04:00:50.247Z,82.95
2022-10-13T04:03:16.893Z,83.09
2022-10-13T04:05:43.914Z,83.03
2022-10-13T04:08:10.548Z,83.03
2022-10-13T04:10:36.976Z,83.21
2022-10-13T04:13:03.640Z,82.99
2022-10-13T04:15:30.058Z,83.07
2022-10-13T04:17:56.616Z,83.39
2022-10-13T04:20:22.903Z,83.31
2022-10-13T04:22:49.198Z,83.21
2022-10-13T04:25:15.745Z,82.97
2022-10-13T04:27:42.152Z,82.84
2022-10-13T04:30:12.429Z,82.91
2022-10-13T04:32:40.026Z,82.73
2022-10-13T04:35:06.909Z,82.92
2022-10-13T04:37:33.223Z,82.96
2022-10-13T04:39:59.711Z,83.39
2022-10-13T04:42:26.062Z,83.57
2022-10-13T04:44:52.363Z,83.87
2022-10-13T04:47:18.742Z,84.15
2022-10-13T04:49:45.070Z,84.09
2022-10-13T04:52:11.494Z,84.22
2022-10-13T04:54:37.789Z,84.17
2022-10-13T04:57:04.440Z,83.95
2022-10-13T04:59:30.883Z,84.12
2022-10-13T05:01:57.194Z,84.04
2022-10-13T05:04:23.502Z,84.53
2022-10-13T05:07:16.027Z,84.55
2022-10-13T05:09:36.627Z,84.67
2022-10-13T05:12:03.514Z,84.68
2022-10-13T05:14:30.151Z,84.84
2022-10-13T05:16:56.696Z,84.61
2022-10-13T05:19:23.434Z,84.62
2022-10-13T05:21:50.336Z,84.76
2022-10-13T05:24:16.656Z,84.96
2022-10-13T05:26:43.346Z,84.71
2022-10-13T05:29:09.757Z,84.76
2022-10-13T05:31:36.327Z,84.64
2022-10-13T05:34:03.117Z,84.34
2022-10-13T05:36:34.586Z,84.44
2022-10-13T05:39:04.868Z,84.60
2022-10-13T05:41:32.877Z,84.62
2022-10-13T05:44:08.464Z,84.74
2022-10-13T05:46:35.468Z,84.98
2022-10-13T05:49:02.831Z,85.01
2022-10-13T05:51:37.968Z,85.25
2022-10-13T05:54:10.442Z,85.25
2022-10-13T05:56:48.086Z,85.29
2022-10-13T05:59:17.961Z,84.87
2022-10-13T06:01:45.492Z,85.00
2022-10-13T06:04:18.283Z,85.12
2022-10-13T06:06:45.076Z,85.06
2022-10-13T06:09:11.480Z,85.10
2022-10-13T06:11:37.922Z,84.69
2022-10-13T06:14:04.379Z,85.06
2022-10-13T06:16:30.990Z,84.72
2022-10-13T06:18:57.510Z,84.57
2022-10-13T06:21:23.806Z,84.44
2022-10-13T06:23:50.138Z,84.71
2022-10-13T06:26:16.665Z,84.39
2022-10-13T06:28:47.576Z,84.34
2022-10-13T06:31:16.577Z,84.12
2022-10-13T06:33:43.037Z,84.29
2022-10-13T06:36:09.654Z,84.67
2022-10-13T06:38:36.110Z,84.49
2022-10-13T06:41:04.057Z,84.87
2022-10-13T06:43:39.719Z,85.12
2022-10-13T06:46:07.595Z,85.16
2022-10-13T06:48:34.434Z,85.09
2022-10-13T06:51:03.401Z,84.85
2022-10-13T06:53:31.156Z,85.05
2022-10-13T06:55:59.236Z,85.28
2022-10-13T06:58:26.330Z,85.22
2022-10-13T07:00:56.768Z,84.96
2022-10-13T07:03:23.639Z,85.21
2022-10-13T07:05:49.970Z,85.12
2022-10-13T07:08:16.756Z,84.97
2022-10-13T07:10:43.755Z,85.15
2022-10-13T07:13:15.654Z,84.90
2022-10-13T07:15:42.145Z,84.58
2022-10-13T07:18:08.841Z,84.71
2022-10-13T07:20:35.247Z,84.79
2022-10-13T07:23:01.945Z,85.44
2022-10-13T07:25:28.820Z,84.82
2022-10-13T07:27:55.144Z,84.86
2022-10-13T07:30:22.240Z,84.64
2022-10-13T07:32:49.161Z,84.64
2022-10-13T07:35:15.632Z,84.29
2022-10-13T07:37:42.064Z,84.43
2022-10-13T07:40:09.172Z,84.35
2022-10-13T07:42:36.711Z,84.24
2022-10-13T07:45:03.590Z,84.34
2022-10-13T07:47:29.932Z,84.12
2022-10-13T07:49:56.364Z,83.62
2022-10-13T07:52:23.067Z,84.07
2022-10-13T07:54:50.669Z,83.93
2022-10-13T07:57:17.305Z,83.85
2022-10-13T07:59:43.766Z,83.75
2022-10-13T08:02:10.108Z,83.91
2022-10-13T08:04:36.500Z,83.79
2022-10-13T08:07:04.991Z,83.74
2022-10-13T08:09:31.510Z,83.67
2022-10-13T08:12:00.877Z,83.43
2022-10-13T08:14:28.314Z,83.24
2022-10-13T08:16:54.818Z,83.18
2022-10-13T08:19:21.520Z,82.98
2022-10-13T08:22:09.101Z,83.43
2022-10-13T08:24:35.426Z,83.06
2022-10-13T08:27:01.888Z,83.71
2022-10-13T08:29:28.451Z,83.77
2022-10-13T08:31:55.517Z,83.36
2022-10-13T08:34:28.190Z,83.13
2022-10-13T08:36:54.915Z,82.58
2022-10-13T08:39:22.381Z,82.22
2022-10-13T08:41:49.696Z,82.38
2022-10-13T08:47:29.942Z,82.24
2022-10-13T08:50:00.979Z,82.36
2022-10-13T08:52:29.781Z,82.61
2022-10-13T08:54:56.432Z,82.52
2022-10-13T08:57:23.426Z,82.65
2022-10-13T08:59:52.092Z,82.18
2022-10-13T09:02:30.514Z,82.21
2022-10-13T09:05:02.161Z,82.08
2022-10-13T09:07:35.053Z,82.49
2022-10-13T09:10:01.400Z,82.06
2022-10-13T09:12:27.922Z,81.35
2022-10-13T09:15:03.889Z,80.26
2022-10-13T09:17:31.898Z,80.13
2022-10-13T09:20:04.150Z,80.05
2022-10-13T09:22:35.199Z,79.37
2022-10-13T09:25:17.252Z,76.97
2022-10-13T09:27:46.845Z,76.80
2022-10-13T09:30:31.451Z,76.65
2022-10-13T09:33:10.029Z,76.11
2022-10-13T09:35:38.534Z,75.43
2022-10-13T09:38:16.205Z,75.67
2022-10-13T09:40:44.613Z,75.70
2022-10-13T09:43:27.790Z,74.59
2022-10-13T09:45:54.468Z,74.16
2022-10-13T09:48:28.317Z,73.41
2022-10-13T09:50:56.747Z,72.69
2022-10-13T09:53:37.459Z,73.20
2022-10-13T09:56:17.473Z,71.76
2022-10-13T09:59:11.256Z,71.53
2022-10-13T10:01:43.529Z,71.42
2022-10-13T10:04:14.578Z,72.23
2022-10-13T10:06:41.266Z,69.09
2022-10-13T10:09:36.323Z,69.22
2022-10-13T10:12:05.173Z,68.90
2022-10-13T10:14:37.476Z,65.42
2022-10-13T10:17:18.703Z,65.17
2022-10-13T10:20:03.329Z,65.68
2022-10-13T10:22:44.988Z,65.89
2022-10-13T10:25:29.160Z,67.00
2022-10-13T10:28:33.024Z,66.78
2022-10-13T10:31:17.951Z,64.91
2022-10-13T10:34:05.968Z,64.47
2022-10-13T10:36:48.394Z,63.79
2022-10-13T10:39:36.593Z,64.73
2022-10-13T10:42:11.611Z,64.69
2022-10-13T10:44:44.272Z,64.17
2022-10-13T10:47:32.702Z,65.32
2022-10-13T10:50:06.551Z,66.47
2022-10-13T10:53:00.002Z,65.55
2022-10-13T10:55:45.731Z,65.33
2022-10-13T10:58:34.538Z,65.60
2022-10-13T11:01:37.011Z,64.45
2022-10-13T11:04:32.841Z,65.46
2022-10-13T11:06:59.561Z,66.56
2022-10-13T11:09:41.369Z,66.93
2022-10-13T11:12:20.220Z,67.24
2022-10-13T11:14:53.832Z,67.35
2022-10-13T11:17:38.034Z,66.93
2022-10-13T11:20:19.887Z,67.12
2022-10-13T11:22:58.677Z,66.96
2022-10-13T11:25:35.685Z,65.79
2022-10-13T11:28:22.274Z,66.19
2022-10-13T11:30:56.321Z,66.47
2022-10-13T11:33:37.955Z,66.53
2022-10-13T11:36:35.737Z,66.58
2022-10-13T11:39:26.746Z,65.73
2022-10-13T11:42:14.407Z,66.92
2022-10-13T11:44:58.040Z,66.07
2022-10-13T11:48:02.425Z,62.11
2022-10-13T11:51:09.524Z,62.75
2022-10-13T11:53:50.647Z,62.70
2022-10-13T11:56:36.319Z,62.01
2022-10-13T11:59:05.605Z,61.78
2022-10-13T12:01:32.179Z,62.69
2022-10-13T12:03:58.629Z,62.05
2022-10-13T12:06:32.434Z,61.46
2022-10-13T12:09:02.482Z,62.96
2022-10-13T12:11:32.818Z,63.63
2022-10-13T12:14:01.068Z,63.38
2022-10-13T12:16:28.808Z,63.32
2022-10-13T12:19:26.219Z,63.02
2022-10-13T12:21:55.856Z,63.72
2022-10-13T12:24:24.278Z,62.33
2022-10-13T12:26:51.542Z,63.41
2022-10-13T12:29:19.566Z,63.92
2022-10-13T12:31:49.029Z,62.93
2022-10-13T12:34:24.158Z,62.58
2022-10-13T12:37:02.521Z,63.92
2022-10-13T12:39:31.878Z,63.97
2022-10-13T12:42:00.674Z,64.63
2022-10-13T12:44:31.919Z,64.54
2022-10-13T12:47:02.006Z,63.83
2022-10-13T12:49:31.263Z,63.64
2022-10-13T12:52:03.336Z,64.41
2022-10-13T12:54:32.492Z,65.02
2022-10-13T12:57:01.979Z,65.53
2022-10-13T12:59:30.652Z,63.55
2022-10-13T13:02:02.465Z,64.42
2022-10-13T13:04:39.050Z,65.15
2022-10-13T13:07:06.456Z,65.38
2022-10-13T13:09:36.446Z,65.72
2022-10-13T13:12:08.680Z,65.75
2022-10-13T13:14:38.934Z,66.27
2022-10-13T13:17:11.622Z,66.61
2022-10-13T13:19:38.957Z,67.29
2022-10-13T13:22:06.566Z,68.33
2022-10-13T13:24:40.201Z,69.03
2022-10-13T13:27:25.557Z,68.89
2022-10-13T13:29:53.900Z,68.44
2022-10-13T13:32:22.361Z,68.15
2022-10-13T13:34:49.514Z,67.37
2022-10-13T13:37:23.901Z,67.58
2022-10-13T13:39:51.030Z,67.77
2022-10-13T13:42:17.327Z,67.63
2022-10-13T13:44:43.978Z,67.75
2022-10-13T13:47:17.168Z,68.28
2022-10-13T13:49:44.137Z,68.35
2022-10-13T13:52:10.654Z,68.69
2022-10-13T13:54:37.194Z,69.08
2022-10-13T13:57:04.169Z,69.47
2022-10-13T13:59:30.486Z,69.62
2022-10-13T14:01:56.964Z,69.90
2022-10-13T14:04:23.358Z,70.25
2022-10-13T14:06:51.477Z,70.07
2022-10-13T14:09:17.936Z,70.34
2022-10-13T14:11:44.303Z,70.65
2022-10-13T14:14:10.862Z,70.26
2022-10-13T14:16:37.693Z,70.59
2022-10-13T14:19:04.280Z,70.54
2022-10-13T14:21:30.675Z,69.89
2022-10-13T14:23:57.056Z,68.58
2022-10-13T14:26:23.440Z,69.63
2022-10-13T14:28:49.767Z,70.30
2022-10-13T14:31:16.185Z,70.17
2022-10-13T14:33:42.810Z,70.23
2022-10-13T14:36:09.461Z,70.83
2022-10-13T14:38:35.778Z,70.83
2022-10-13T14:41:04.214Z,70.81
2022-10-13T14:43:31.233Z,71.00
2022-10-13T14:46:05.533Z,70.86
2022-10-13T14:48:32.877Z,70.70
2022-10-13T14:50:59.344Z,70.89
2022-10-13T14:53:25.735Z,70.80
2022-10-13T14:55:52.840Z,70.45
2022-10-13T14:58:19.163Z,69.58
2022-10-13T15:00:45.552Z,69.99
2022-10-13T15:03:12.019Z,70.89
2022-10-13T15:05:38.481Z,70.52
2022-10-13T15:08:05.121Z,70.57
2022-10-13T15:10:31.551Z,71.01
2022-10-13T15:12:57.850Z,70.84
2022-10-13T15:15:24.144Z,71.14
2022-10-13T15:17:50.762Z,71.37
2022-10-13T15:20:17.125Z,71.17
2022-10-13T15:22:43.621Z,71.44
2022-10-13T15:25:10.027Z,71.57
2022-10-13T15:27:41.503Z,71.62
2022-10-13T15:30:09.082Z,71.90
2022-10-13T15:32:35.715Z,71.82
2022-10-13T15:35:02.023Z,71.62
2022-10-13T15:37:28.426Z,71.48
2022-10-13T15:39:57.554Z,71.79
2022-10-13T15:42:24.103Z,71.94
2022-10-13T15:45:08.611Z,72.34
2022-10-13T15:47:36.211Z,72.54
2022-10-13T15:50:02.971Z,72.65
2022-10-13T15:52:33.821Z,72.34
2022-10-13T15:55:01.887Z,72.96
2022-10-13T15:57:28.289Z,73.01
2022-10-13T15:59:54.670Z,72.59
2022-10-13T16:02:21.544Z,72.77
2022-10-13T16:04:47.976Z,72.52
2022-10-13T16:07:14.429Z,72.77
2022-10-13T16:09:40.977Z,73.05
2022-10-13T16:12:07.536Z,73.21
2022-10-13T16:14:33.961Z,72.68
2022-10-13T16:17:00.284Z,73.10
2022-10-13T16:19:26.579Z,73.10
2022-10-13T16:21:52.986Z,73.18
2022-10-13T16:24:19.340Z,73.53
2022-10-13T16:26:45.712Z,73.62
2022-10-13T16:29:12.234Z,73.86
2022-10-13T16:31:38.577Z,73.95
2022-10-13T16:34:05.166Z,73.87
2022-10-13T16:36:31.614Z,74.07
2022-10-13T16:38:58.826Z,74.38
2022-10-13T16:41:25.125Z,74.46
2022-10-13T16:43:51.506Z,74.38
2022-10-13T16:46:20.163Z,74.27
2022-10-13T16:48:47.723Z,74.39
2022-10-13T16:51:17.514Z,74.55
2022-10-13T16:53:49.251Z,74.41
2022-10-13T16:56:16.066Z,74.72
2022-10-13T16:58:42.365Z,74.69
2022-10-13T17:01:09.838Z,74.74
2022-10-13T17:03:37.282Z,74.90
2022-10-13T17:06:04.196Z,74.75
2022-10-13T17:08:31.015Z,74.80
2022-10-13T17:11:00.177Z,75.08
2022-10-13T17:13:26.751Z,75.34
2022-10-13T17:15:54.767Z,75.40
2022-10-13T17:18:21.308Z,75.37
2022-10-13T17:20:51.988Z,75.80
2022-10-13T17:23:18.287Z,74.54
2022-10-13T17:25:44.580Z,75.27
2022-10-13T17:28:11.041Z,75.60
2022-10-13T17:30:37.333Z,75.99
2022-10-13T17:33:04.642Z,76.38
2022-10-13T17:35:31.865Z,76.41
2022-10-13T17:37:58.181Z,76.30
2022-10-13T17:40:25.851Z,76.77
2022-10-13T17:42:52.237Z,76.65
2022-10-13T17:45:18.617Z,76.84
2022-10-13T17:47:51.292Z,76.85
2022-10-13T17:50:18.470Z,76.78
2022-10-13T17:52:44.856Z,76.63
2022-10-13T17:55:11.170Z,76.40
2022-10-13T17:57:37.553Z,76.42
2022-10-13T18:00:05.327Z,75.92
2022-10-13T18:02:31.872Z,76.14
2022-10-13T18:04:58.149Z,76.39
2022-10-13T18:07:24.775Z,76.13
2022-10-13T18:09:54.106Z,76.78
2022-10-13T18:12:20.834Z,76.81
2022-10-13T18:14:47.257Z,76.09
2022-10-13T18:17:13.680Z,76.30
2022-10-13T18:19:40.543Z,76.95
2022-10-13T18:22:07.024Z,76.90
2022-10-13T18:24:33.323Z,77.69
2022-10-13T18:26:59.632Z,77.64
2022-10-13T18:29:26.032Z,78.04
2022-10-13T18:31:55.018Z,78.04
2022-10-13T18:34:21.386Z,78.34
2022-10-13T18:36:50.225Z,78.52
2022-10-13T18:39:19.026Z,78.87
2022-10-13T18:41:46.444Z,79.33
2022-10-13T18:44:13.278Z,79.33
2022-10-13T18:46:40.577Z,79.64
2022-10-13T18:49:10.529Z,79.63
2022-10-13T18:51:36.941Z,79.56
2022-10-13T18:54:04.819Z,78.50
2022-10-13T18:56:33.220Z,78.53
2022-10-13T18:59:01.693Z,78.15
2022-10-13T19:01:32.435Z,78.03
2022-10-13T19:03:59.476Z,78.81
2022-10-13T19:06:28.354Z,78.38
2022-10-13T19:08:56.620Z,78.68
2022-10-13T19:11:24.294Z,78.65
2022-10-13T19:13:51.897Z,78.75
2022-10-13T19:16:21.054Z,79.14
2022-10-13T19:18:48.579Z,79.37
2022-10-13T19:21:15.286Z,79.35
2022-10-13T19:23:42.020Z,79.49
2022-10-13T19:26:15.157Z,79.50
2022-10-13T19:28:42.453Z,79.85
2022-10-13T19:31:21.269Z,80.30
2022-10-13T19:33:49.749Z,80.54
2022-10-13T19:36:33.542Z,80.84
2022-10-13T19:39:01.091Z,80.75
2022-10-13T19:41:29.669Z,81.10
2022-10-13T19:43:56.405Z,80.86
2022-10-13T19:46:23.946Z,81.02
2022-10-13T19:48:50.548Z,81.33
2022-10-13T19:51:17.788Z,81.40
2022-10-13T19:53:44.635Z,81.41
2022-10-13T19:56:21.056Z,81.76
2022-10-13T19:58:47.493Z,81.88
2022-10-13T20:01:13.821Z,82.29
2022-10-13T20:03:40.172Z,82.34
2022-10-13T20:06:07.007Z,82.34
2022-10-13T20:08:33.312Z,82.35
2022-10-13T20:11:05.066Z,82.68
2022-10-13T20:13:31.364Z,83.00
2022-10-13T20:15:57.714Z,83.13
2022-10-13T20:21:11.327Z,83.20
2022-10-13T20:23:38.437Z,82.88
2022-10-13T20:26:06.977Z,83.33
2022-10-13T20:28:33.763Z,83.55
2022-10-13T20:31:04.584Z,83.28
2022-10-13T20:33:32.254Z,83.20
2022-10-13T20:36:03.435Z,83.32
2022-10-13T20:38:31.182Z,83.47
2022-10-13T20:41:15.551Z,83.45
2022-10-13T20:43:42.273Z,83.15
2022-10-13T20:46:08.967Z,83.84
2022-10-13T20:49:05.075Z,83.49
2022-10-13T20:51:24.741Z,83.77
2022-10-13T20:53:51.288Z,83.57
2022-10-13T20:56:20.731Z,83.72
2022-10-13T20:58:47.504Z,83.81
2022-10-13T21:01:14.395Z,83.83
2022-10-13T21:03:41.057Z,84.32
2022-10-13T21:06:11.018Z,84.22
2022-10-13T21:08:37.539Z,84.30
2022-10-13T21:11:06.240Z,84.36
2022-10-13T21:13:32.613Z,84.52
2022-10-13T21:16:05.983Z,84.40
2022-10-13T21:18:32.374Z,84.17
2022-10-13T21:21:10.566Z,84.27
2022-10-13T21:23:37.837Z,84.84
2022-10-13T21:26:05.953Z,84.48
2022-10-13T21:28:33.312Z,84.44
2022-10-13T21:31:08.848Z,84.07
2022-10-13T21:33:36.155Z,84.20
2022-10-13T21:36:14.125Z,84.39
2022-10-13T21:38:41.742Z,84.20
2022-10-13T21:41:09.729Z,84.39
2022-10-13T21:43:36.589Z,84.57
2022-10-13T21:46:14.810Z,84.22
2022-10-13T21:48:41.374Z,84.64
2022-10-13T21:51:24.568Z,84.83
2022-10-13T21:53:53.747Z,85.00
2022-10-13T21:56:21.474Z,85.06
2022-10-13T21:58:48.045Z,85.05
2022-10-13T22:01:18.257Z,85.00
2022-10-13T22:03:45.590Z,84.91
2022-10-13T22:06:18.777Z,84.85
2022-10-13T22:08:47.859Z,84.99
2022-10-13T22:11:15.492Z,85.06
2022-10-13T22:13:41.862Z,85.14
2022-10-13T22:16:15.203Z,84.98
2022-10-13T22:18:41.924Z,85.11
2022-10-13T22:21:12.037Z,85.15
2022-10-13T22:23:38.432Z,85.09
2022-10-13T22:26:04.904Z,85.06
2022-10-13T22:28:36.817Z,85.65
2022-10-13T22:31:08.778Z,85.15
2022-10-13T22:33:36.732Z,85.10
2022-10-13T22:36:11.926Z,85.31
2022-10-13T22:38:38.386Z,85.61
2022-10-13T22:41:06.318Z,85.57
2022-10-13T22:43:33.724Z,85.84
2022-10-13T22:46:00.141Z,85.56
2022-10-13T22:48:26.753Z,85.39
2022-10-13T22:50:53.125Z,85.53
2022-10-13T22:53:19.963Z,85.91
2022-10-13T22:55:46.320Z,85.96
2022-10-13T22:58:12.970Z,85.92
2022-10-13T23:00:39.338Z,85.70
2022-10-13T23:03:06.220Z,85.89
2022-10-13T23:05:32.965Z,85.78
2022-10-13T23:07:59.408Z,85.70
2022-10-13T23:10:25.806Z,85.70
2022-10-13T23:12:52.221Z,85.56
2022-10-13T23:15:18.612Z,85.58
2022-10-13T23:17:44.930Z,85.30
2022-10-13T23:20:11.632Z,85.72
2022-10-13T23:22:38.074Z,85.46
2022-10-13T23:25:04.760Z,85.63
2022-10-13T23:27:31.097Z,85.49
2022-10-13T23:29:57.568Z,85.54
2022-10-13T23:32:24.162Z,85.58
2022-10-13T23:34:50.653Z,85.81
2022-10-13T23:37:17.348Z,86.19
2022-10-13T23:39:43.654Z,86.39
2022-10-13T23:42:10.242Z,86.16
2022-10-13T23:44:36.886Z,86.05
2022-10-13T23:47:03.258Z,86.06
2022-10-13T23:49:29.709Z,86.21
2022-10-13T23:51:56.005Z,86.04
2022-10-13T23:54:22.449Z,85.85
2022-10-13T23:56:49.063Z,86.12
2022-10-13T23:59:15.350Z,86.10
